createdAt,value
2022-12-31T00:00:11.912Z,3.78
2022-12-31T00:05:31.815Z,3.69
2022-12-31T00:10:41.422Z,3.61
2022-12-31T00:15:45.275Z,3.72
2022-12-31T00:20:48.195Z,3.72
2022-12-31T00:25:51.115Z,3.76
2022-12-31T00:30:54.080Z,3.86
2022-12-31T00:36:08.210Z,3.91
2022-12-31T00:41:11.628Z,4.02
2022-12-31T00:46:15.932Z,4.01
2022-12-31T00:51:23.051Z,4.00
2022-12-31T00:56:29.085Z,4.02
2022-12-31T01:01:38.645Z,4.07
2022-12-31T01:06:43.660Z,4.14
2022-12-31T01:11:46.702Z,4.11
2022-12-31T01:16:54.085Z,4.11
2022-12-31T01:21:57.529Z,4.17
2022-12-31T01:27:00.539Z,4.24
2022-12-31T01:32:03.545Z,4.23
2022-12-31T01:37:06.476Z,4.12
2022-12-31T01:42:12.287Z,4.15
2022-12-31T01:47:21.191Z,4.23
2022-12-31T01:52:39.664Z,4.29
2022-12-31T01:57:46.989Z,4.38
2022-12-31T02:02:50.307Z,4.45
2022-12-31T02:07:54.676Z,4.53
2022-12-31T02:12:58.143Z,4.63
2022-12-31T02:18:35.658Z,4.69
2022-12-31T02:24:15.514Z,4.69
2022-12-31T02:29:55.322Z,4.77
2022-12-31T02:35:12.948Z,4.80
2022-12-31T02:40:20.169Z,4.82
2022-12-31T02:45:31.269Z,4.89
2022-12-31T02:50:55.567Z,4.96
2022-12-31T02:56:10.033Z,4.98
2022-12-31T03:01:38.576Z,5.05
2022-12-31T03:06:43.053Z,5.09
2022-12-31T03:12:04.957Z,5.10
2022-12-31T03:17:07.996Z,5.13
2022-12-31T03:22:28.826Z,5.21
2022-12-31T03:27:31.776Z,5.28
2022-12-31T03:32:34.832Z,5.32
2022-12-31T03:37:39.806Z,5.37
2022-12-31T03:42:42.940Z,5.44
2022-12-31T03:47:45.921Z,5.48
2022-12-31T03:52:48.981Z,5.48
2022-12-31T03:57:52.535Z,5.51
2022-12-31T04:02:55.878Z,5.54
2022-12-31T04:07:58.884Z,5.54
2022-12-31T04:13:04.770Z,5.56
2022-12-31T04:18:07.921Z,5.63
2022-12-31T04:23:11.114Z,5.68
2022-12-31T04:28:14.059Z,5.71
2022-12-31T04:33:16.995Z,5.76
2022-12-31T04:38:20.441Z,5.81
2022-12-31T04:43:23.378Z,5.91
2022-12-31T04:48:26.325Z,5.97
2022-12-31T04:53:29.579Z,5.99
2022-12-31T04:58:33.893Z,6.04
2022-12-31T05:03:37.802Z,6.13
2022-12-31T05:08:40.922Z,6.13
2022-12-31T05:13:44.458Z,6.11
2022-12-31T05:18:47.410Z,6.13
2022-12-31T05:23:50.424Z,6.20
2022-12-31T05:28:53.381Z,6.25
2022-12-31T05:33:56.514Z,6.25
2022-12-31T05:38:59.486Z,6.24
2022-12-31T05:44:02.457Z,6.24
2022-12-31T05:49:05.508Z,6.24
2022-12-31T05:54:08.457Z,6.22
2022-12-31T05:59:11.455Z,6.19
2022-12-31T06:04:14.467Z,6.14
2022-12-31T06:09:19.049Z,6.13
2022-12-31T06:14:22.099Z,6.16
2022-12-31T06:19:25.219Z,6.19
2022-12-31T06:24:28.201Z,6.20
2022-12-31T06:29:31.120Z,6.20
2022-12-31T06:34:34.122Z,6.26
2022-12-31T06:39:37.064Z,6.33
2022-12-31T06:44:39.971Z,6.38
2022-12-31T06:49:42.897Z,6.40
2022-12-31T06:54:46.466Z,6.42
2022-12-31T06:59:49.907Z,6.50
2022-12-31T07:05:28.208Z,6.59
2022-12-31T07:10:37.250Z,6.66
2022-12-31T07:15:43.018Z,6.70
2022-12-31T07:20:46.364Z,6.78
2022-12-31T07:26:03.223Z,6.83
2022-12-31T07:31:21.284Z,6.85
2022-12-31T07:36:56.155Z,6.89
2022-12-31T07:42:19.854Z,6.99
2022-12-31T07:47:26.221Z,7.03
2022-12-31T07:52:29.673Z,7.04
2022-12-31T07:57:59.218Z,7.08
2022-12-31T08:03:39.332Z,7.18
2022-12-31T08:09:29.666Z,7.25
2022-12-31T08:14:46.414Z,7.26
2022-12-31T08:19:49.977Z,7.30
2022-12-31T08:25:01.162Z,7.39
2022-12-31T08:30:14.440Z,7.45
2022-12-31T08:35:41.650Z,7.50
2022-12-31T08:41:01.440Z,7.53
2022-12-31T08:46:14.374Z,7.61
2022-12-31T08:51:26.516Z,7.68
2022-12-31T08:56:38.142Z,7.71
2022-12-31T09:01:56.525Z,7.72
2022-12-31T09:07:03.299Z,7.77
2022-12-31T09:12:35.392Z,7.84
2022-12-31T09:17:48.249Z,7.87
2022-12-31T09:22:52.761Z,7.91
2022-12-31T09:28:08.173Z,7.97
2022-12-31T09:33:50.223Z,8.10
2022-12-31T09:39:35.189Z,8.20
2022-12-31T09:44:58.201Z,8.25
2022-12-31T09:50:52.803Z,8.35
2022-12-31T09:56:16.468Z,8.46
2022-12-31T10:01:53.441Z,8.54
2022-12-31T10:07:09.419Z,8.61
2022-12-31T10:12:49.976Z,8.71
2022-12-31T10:18:16.484Z,8.78
2022-12-31T10:23:36.790Z,8.83
2022-12-31T10:28:56.431Z,8.94
2022-12-31T10:34:15.406Z,9.05
2022-12-31T10:39:33.441Z,9.15
2022-12-31T10:44:39.213Z,9.22
2022-12-31T10:50:15.263Z,9.37
2022-12-31T10:55:54.357Z,9.50
2022-12-31T11:01:30.644Z,9.58
2022-12-31T11:07:13.274Z,9.67
2022-12-31T11:13:03.936Z,9.78
2022-12-31T11:18:45.083Z,9.86
2022-12-31T11:24:29.286Z,9.90
2022-12-31T11:30:24.457Z,9.93
2022-12-31T11:36:00.728Z,10.04
2022-12-31T11:41:23.141Z,10.12
2022-12-31T11:46:50.636Z,10.19
2022-12-31T11:52:43.934Z,10.22
2022-12-31T11:57:52.397Z,10.30
2022-12-31T12:03:07.289Z,10.36
2022-12-31T12:08:11.919Z,10.40
2022-12-31T12:13:23.924Z,10.42
2022-12-31T12:18:40.870Z,10.52
2022-12-31T12:23:56.573Z,10.60
2022-12-31T12:29:09.700Z,10.64
2022-12-31T12:34:27.631Z,10.67
2022-12-31T12:39:34.419Z,10.74
2022-12-31T12:44:37.736Z,10.80
2022-12-31T12:49:54.872Z,10.83
2022-12-31T12:55:54.246Z,10.90
2022-12-31T13:01:13.775Z,10.95
2022-12-31T13:06:28.905Z,10.98
2022-12-31T13:11:50.070Z,11.02
2022-12-31T13:17:52.709Z,11.07
2022-12-31T13:23:19.123Z,11.07
2022-12-31T13:28:24.797Z,11.06
2022-12-31T13:33:34.586Z,11.10
2022-12-31T13:38:47.367Z,11.13
2022-12-31T13:44:00.345Z,11.12
2022-12-31T13:49:19.241Z,11.17
2022-12-31T13:54:37.059Z,11.21
2022-12-31T13:59:46.288Z,11.22
2022-12-31T14:04:58.649Z,11.20
2022-12-31T14:10:01.710Z,11.20
2022-12-31T14:15:32.217Z,11.19
2022-12-31T14:21:28.548Z,11.15
2022-12-31T14:26:40.320Z,11.17
2022-12-31T14:31:49.233Z,11.16
2022-12-31T14:37:07.851Z,11.12
2022-12-31T14:42:22.101Z,11.13
2022-12-31T14:48:00.348Z,11.13
2022-12-31T14:53:03.252Z,11.10
2022-12-31T14:58:40.917Z,11.09
2022-12-31T15:03:46.229Z,11.13
2022-12-31T15:09:23.186Z,11.13
2022-12-31T15:14:33.686Z,11.10
2022-12-31T15:20:06.395Z,11.12
2022-12-31T15:25:36.953Z,11.16
2022-12-31T15:30:50.636Z,11.15
2022-12-31T15:35:56.736Z,11.14
2022-12-31T15:41:00.051Z,11.16
2022-12-31T15:46:14.837Z,11.18
2022-12-31T15:51:23.425Z,11.20
2022-12-31T15:56:45.356Z,11.24
2022-12-31T16:01:48.959Z,11.29
2022-12-31T16:06:53.150Z,11.30
2022-12-31T16:11:57.701Z,11.32
2022-12-31T16:17:01.996Z,11.38
2022-12-31T16:22:44.709Z,11.39
2022-12-31T16:27:49.860Z,11.39
2022-12-31T16:33:14.384Z,11.41
2022-12-31T16:38:19.500Z,11.41
2022-12-31T16:43:27.504Z,11.39
2022-12-31T16:48:30.502Z,11.37
2022-12-31T16:53:38.204Z,11.39
2022-12-31T16:58:45.320Z,11.38
2022-12-31T17:03:55.658Z,11.36
2022-12-31T17:08:59.642Z,11.39
2022-12-31T17:14:08.332Z,11.44
2022-12-31T17:19:41.850Z,11.46
2022-12-31T17:24:49.523Z,11.46
2022-12-31T17:29:52.514Z,11.52
2022-12-31T17:34:55.561Z,11.56
2022-12-31T17:40:24.976Z,11.56
2022-12-31T17:45:25.383Z,11.54
2022-12-31T17:50:28.339Z,11.55
2022-12-31T17:55:45.546Z,11.58
2022-12-31T18:00:58.862Z,11.58
2022-12-31T18:06:02.690Z,11.56
2022-12-31T18:11:05.980Z,11.59
2022-12-31T18:16:08.961Z,11.63
2022-12-31T18:21:32.723Z,11.62
2022-12-31T18:26:35.759Z,11.61
2022-12-31T18:31:39.540Z,11.63
2022-12-31T18:36:43.094Z,11.66
2022-12-31T18:41:51.286Z,11.67
2022-12-31T18:46:54.213Z,11.67
2022-12-31T18:51:57.234Z,11.71
2022-12-31T18:57:00.198Z,11.73
2022-12-31T19:02:03.578Z,11.72
2022-12-31T19:07:07.704Z,11.74
2022-12-31T19:12:14.891Z,11.79
2022-12-31T19:17:17.835Z,11.81
2022-12-31T19:22:20.774Z,11.80
2022-12-31T19:27:24.718Z,11.81
2022-12-31T19:32:28.875Z,11.84
2022-12-31T19:37:32.283Z,11.83
2022-12-31T19:42:35.203Z,11.80
2022-12-31T19:47:38.175Z,11.78
2022-12-31T19:52:43.008Z,11.84
2022-12-31T19:57:47.973Z,11.90
2022-12-31T20:02:51.021Z,11.92
2022-12-31T20:07:55.291Z,11.92
2022-12-31T20:12:58.589Z,11.98
2022-12-31T20:18:03.757Z,12.02
2022-12-31T20:23:07.058Z,11.99
2022-12-31T20:28:09.972Z,11.99
2022-12-31T20:33:27.591Z,12.00
2022-12-31T20:45:49.862Z,11.92
2022-12-31T20:50:56.871Z,11.90
2022-12-31T20:56:08.449Z,11.91
2022-12-31T21:01:11.907Z,11.89
2022-12-31T21:06:15.756Z,11.85
2022-12-31T21:11:37.406Z,11.82
2022-12-31T21:16:40.452Z,11.84
2022-12-31T21:21:43.453Z,11.88
2022-12-31T21:26:47.386Z,11.85
2022-12-31T21:31:51.847Z,11.79
2022-12-31T21:36:59.166Z,11.79
2022-12-31T21:42:03.631Z,11.77
2022-12-31T21:47:47.231Z,11.73
2022-12-31T21:53:04.476Z,11.68
2022-12-31T22:03:31.846Z,11.67
2022-12-31T22:08:34.887Z,11.65
2022-12-31T22:13:38.918Z,11.62
2022-12-31T22:18:44.218Z,11.61
2022-12-31T22:23:50.034Z,11.64
2022-12-31T22:28:54.604Z,11.63
2022-12-31T22:33:58.902Z,11.59
2022-12-31T22:39:01.835Z,11.55
2022-12-31T22:44:05.106Z,11.56
2022-12-31T22:49:10.556Z,11.56
2022-12-31T22:54:14.698Z,11.52
2022-12-31T22:59:17.571Z,11.50
2022-12-31T23:04:21.323Z,11.51
2022-12-31T23:09:42.791Z,11.53
2022-12-31T23:15:04.059Z,11.49
2022-12-31T23:20:30.124Z,11.46
2022-12-31T23:25:41.920Z,11.48
2022-12-31T23:30:45.398Z,11.50
2022-12-31T23:35:48.897Z,11.48
2022-12-31T23:40:51.694Z,11.45
2022-12-31T23:45:54.514Z,11.47
2022-12-31T23:50:57.371Z,11.46
2022-12-31T23:56:22.977Z,11.44
